createdAt,value
2018-08-11T00:00:52.871Z,98097.72
2018-08-11T00:03:20.494Z,98091.27
2018-08-11T00:05:48.152Z,98088.56
2018-08-11T00:08:15.797Z,98087.44
2018-08-11T00:10:43.453Z,98085.86
2018-08-11T00:13:11.095Z,98076.16
2018-08-11T00:15:38.728Z,98085.64
2018-08-11T00:18:06.712Z,98077.73
2018-08-11T00:20:34.391Z,98078.61
2018-08-11T00:23:02.030Z,98079.64
2018-08-11T00:25:29.674Z,98079.64
2018-08-11T00:27:57.337Z,98077.27
2018-08-11T00:30:24.995Z,98074.80
2018-08-11T00:32:52.630Z,98077.52
2018-08-11T00:35:20.247Z,98081.33
2018-08-11T00:37:47.885Z,98072.42
2018-08-11T00:40:18.979Z,98075.13
2018-08-11T00:42:47.702Z,98078.39
2018-08-11T00:45:15.849Z,98072.76
2018-08-11T00:47:43.585Z,98069.47
2018-08-11T00:50:13.040Z,98068.11
2018-08-11T00:52:40.682Z,98067.34
2018-08-11T00:55:08.968Z,98069.47
2018-08-11T00:57:36.790Z,98070.81
2018-08-11T01:00:05.960Z,98072.17
2018-08-11T01:02:33.623Z,98071.16
2018-08-11T01:05:01.267Z,98070.38
2018-08-11T01:07:28.925Z,98072.51
2018-08-11T01:09:56.553Z,98061.45
2018-08-11T01:12:24.178Z,98063.14
2018-08-11T01:14:51.836Z,98062.59
2018-08-11T01:17:19.494Z,98072.29
2018-08-11T01:19:47.126Z,98068.00
2018-08-11T01:22:14.792Z,98067.20
2018-08-11T01:24:42.433Z,98070.94
2018-08-11T01:27:10.082Z,98068.34
2018-08-11T01:29:37.718Z,98065.05
2018-08-11T01:32:05.359Z,98065.05
2018-08-11T01:34:33.010Z,98066.40
2018-08-11T01:37:00.637Z,98068.89
2018-08-11T01:39:28.302Z,98062.12
2018-08-11T01:41:55.942Z,98057.25
2018-08-11T01:44:23.639Z,98053.77
2018-08-11T01:46:51.240Z,98059.19
2018-08-11T01:49:18.863Z,98053.77
2018-08-11T01:51:46.494Z,98048.36
2018-08-11T01:54:14.212Z,98054.33
2018-08-11T01:56:41.878Z,98053.52
2018-08-11T01:59:09.516Z,98049.45
2018-08-11T02:01:37.178Z,98055.46
2018-08-11T02:04:04.823Z,98051.95
2018-08-11T02:06:32.481Z,98052.50
2018-08-11T02:09:00.142Z,98043.60
2018-08-11T02:11:27.797Z,98049.24
2018-08-11T02:13:55.420Z,98048.69
2018-08-11T02:16:23.073Z,98051.73
2018-08-11T02:18:50.704Z,98040.89
2018-08-11T02:21:18.341Z,98031.97
2018-08-11T02:23:45.977Z,98034.13
2018-08-11T02:26:13.645Z,98034.67
2018-08-11T02:28:41.293Z,98036.03
2018-08-11T02:31:08.953Z,98031.16
2018-08-11T02:33:36.613Z,98032.52
2018-08-11T02:36:04.279Z,98026.33
2018-08-11T02:38:31.901Z,98028.02
2018-08-11T02:40:59.520Z,98023.95
2018-08-11T02:43:27.254Z,98015.83
2018-08-11T02:45:54.906Z,98017.18
2018-08-11T02:48:22.560Z,98011.52
2018-08-11T02:50:50.199Z,98015.58
2018-08-11T02:53:17.844Z,98013.67
2018-08-11T02:55:45.476Z,98011.77
2018-08-11T02:58:13.152Z,98006.09
2018-08-11T03:00:40.795Z,98010.16
2018-08-11T03:03:08.433Z,98009.14
2018-08-11T03:05:36.070Z,98010.74
2018-08-11T03:08:03.720Z,98019.42
2018-08-11T03:10:31.464Z,98023.27
2018-08-11T03:12:59.109Z,98017.27
2018-08-11T03:15:26.731Z,98015.14
2018-08-11T03:17:54.385Z,98018.06
2018-08-11T03:20:22.068Z,98020.89
2018-08-11T03:22:49.733Z,98016.50
2018-08-11T03:25:17.398Z,98019.75
2018-08-11T03:27:45.032Z,98022.25
2018-08-11T03:30:12.670Z,98025.76
2018-08-11T03:32:40.302Z,98027.66
2018-08-11T03:35:07.946Z,98027.99
2018-08-11T03:37:35.581Z,98021.44
2018-08-11T03:40:03.251Z,98017.38
2018-08-11T03:42:30.884Z,98030.38
2018-08-11T03:44:58.522Z,98037.14
2018-08-11T03:47:26.188Z,98025.28
2018-08-11T03:49:53.821Z,98026.64
2018-08-11T03:52:21.480Z,98019.87
2018-08-11T03:54:49.249Z,98029.13
2018-08-11T03:57:17.097Z,98030.16
2018-08-11T03:59:44.725Z,98032.61
2018-08-11T04:02:12.369Z,98033.41
2018-08-11T04:04:40.022Z,98027.19
2018-08-11T04:07:07.962Z,98033.74
2018-08-11T04:09:35.606Z,98029.69
2018-08-11T04:12:03.212Z,98032.94
2018-08-11T04:14:30.837Z,98040.30
2018-08-11T04:16:58.482Z,98041.65
2018-08-11T04:19:26.158Z,98040.30
2018-08-11T04:21:53.804Z,98040.30
2018-08-11T04:24:21.432Z,98032.72
2018-08-11T04:26:49.063Z,98041.40
2018-08-11T04:29:16.694Z,98044.91
2018-08-11T04:31:44.321Z,98039.27
2018-08-11T04:34:11.978Z,98042.53
2018-08-11T04:36:39.600Z,98035.77
2018-08-11T04:39:08.009Z,98039.83
2018-08-11T04:41:35.698Z,98040.38
2018-08-11T04:44:03.358Z,98044.69
2018-08-11T04:46:30.993Z,98047.95
2018-08-11T04:48:58.638Z,98049.86
2018-08-11T04:51:26.281Z,98045.80
2018-08-11T04:53:53.959Z,98044.69
2018-08-11T04:56:21.589Z,98047.73
2018-08-11T04:58:49.248Z,98054.50
2018-08-11T05:01:17.030Z,98049.09
2018-08-11T05:03:44.658Z,98051.21
2018-08-11T05:06:12.285Z,98049.42
2018-08-11T05:08:39.929Z,98049.64
2018-08-11T05:11:07.608Z,98046.93
2018-08-11T05:13:35.385Z,98041.30
2018-08-11T05:16:03.028Z,98038.59
2018-08-11T05:18:30.656Z,98047.27
2018-08-11T05:20:58.333Z,98049.64
2018-08-11T05:23:25.961Z,98056.96
2018-08-11T05:25:53.606Z,98062.63
2018-08-11T05:28:21.245Z,98062.38
2018-08-11T05:30:48.877Z,98072.11
2018-08-11T05:33:16.535Z,98065.89
2018-08-11T05:35:44.208Z,98063.18
2018-08-11T05:38:11.829Z,98059.12
2018-08-11T05:40:39.446Z,98062.63
2018-08-11T05:43:07.081Z,98059.67
2018-08-11T05:45:34.716Z,98065.34
2018-08-11T05:48:02.344Z,98072.66
2018-08-11T05:50:29.960Z,98071.86
2018-08-11T05:52:57.591Z,98072.11
2018-08-11T05:55:25.213Z,98074.56
2018-08-11T05:57:52.857Z,98078.08
2018-08-11T06:00:20.543Z,98090.63
2018-08-11T06:02:48.176Z,98091.86
2018-08-11T06:05:15.801Z,98091.31
2018-08-11T06:07:43.446Z,98088.05
2018-08-11T06:10:11.069Z,98090.98
2018-08-11T06:12:39.137Z,98086.92
2018-08-11T06:15:07.414Z,98092.22
2018-08-11T06:17:35.053Z,98085.56
2018-08-11T06:20:02.837Z,98089.05
2018-08-11T06:22:30.477Z,98091.20
2018-08-11T06:24:58.206Z,98094.38
2018-08-11T06:27:25.827Z,98102.51
2018-08-11T06:29:53.466Z,98105.33
2018-08-11T06:32:21.118Z,98099.14
2018-08-11T06:34:48.753Z,98102.17
2018-08-11T06:37:16.380Z,98101.84
2018-08-11T06:39:44.043Z,98097.34
2018-08-11T06:42:11.685Z,98099.83
2018-08-11T06:44:39.339Z,98104.44
2018-08-11T06:47:06.979Z,98115.61
2018-08-11T06:49:34.607Z,98111.88
2018-08-11T06:52:02.266Z,98121.36
2018-08-11T06:54:29.896Z,98127.58
2018-08-11T06:56:57.542Z,98121.14
2018-08-11T06:59:25.166Z,98130.62
2018-08-11T07:01:52.807Z,98127.91
2018-08-11T07:04:20.436Z,98127.91
2018-08-11T07:06:48.087Z,98133.22
2018-08-11T07:09:15.716Z,98131.86
2018-08-11T07:11:43.337Z,98080.03
2018-08-11T07:14:11.029Z,98130.64
2018-08-11T07:16:38.671Z,98130.92
2018-08-11T07:19:06.565Z,98125.34
2018-08-11T07:21:34.189Z,98129.97
2018-08-11T07:24:01.857Z,98130.08
2018-08-11T07:26:29.504Z,98129.12
2018-08-11T07:28:57.193Z,98125.47
2018-08-11T07:31:24.824Z,98117.39
2018-08-11T07:33:52.442Z,98121.82
2018-08-11T07:36:20.252Z,98124.13
2018-08-11T07:38:47.817Z,98119.46
2018-08-11T07:41:15.498Z,98113.69
2018-08-11T07:43:43.129Z,98118.31
2018-08-11T07:46:10.765Z,98113.89
2018-08-11T07:48:38.436Z,98118.31
2018-08-11T07:51:06.386Z,98123.08
2018-08-11T07:53:34.035Z,98123.27
2018-08-11T07:56:01.796Z,98126.81
2018-08-11T07:58:29.345Z,98128.67
2018-08-11T08:00:56.975Z,98132.41
2018-08-11T08:03:24.599Z,98127.77
2018-08-11T08:05:52.263Z,98132.00
2018-08-11T08:08:19.980Z,98131.55
2018-08-11T08:10:47.619Z,98128.47
2018-08-11T08:13:15.258Z,98123.67
2018-08-11T08:15:42.898Z,98122.16
2018-08-11T08:18:10.536Z,98129.02
2018-08-11T08:20:38.196Z,98120.78
2018-08-11T08:23:06.174Z,98124.25
2018-08-11T08:25:33.870Z,98125.55
2018-08-11T08:28:01.497Z,98126.70
2018-08-11T08:30:29.140Z,98129.09
2018-08-11T08:32:56.782Z,98127.58
2018-08-11T08:35:24.408Z,98129.23
2018-08-11T08:37:52.032Z,98128.28
2018-08-11T08:40:19.665Z,98125.58
2018-08-11T08:42:47.306Z,98124.91
2018-08-11T08:45:14.970Z,98134.81
2018-08-11T08:47:42.621Z,98131.71
2018-08-11T08:50:10.252Z,98134.15
2018-08-11T08:52:37.916Z,98128.77
2018-08-11T08:55:05.637Z,98130.43
2018-08-11T08:57:33.304Z,98126.02
2018-08-11T09:00:00.950Z,98122.05
2018-08-11T09:02:28.650Z,98135.06
2018-08-11T09:04:56.379Z,98131.28
2018-08-11T09:07:23.935Z,98123.81
2018-08-11T09:09:51.639Z,98121.22
2018-08-11T09:12:19.291Z,98120.09
2018-08-11T09:14:46.938Z,98123.59
2018-08-11T09:17:14.593Z,98126.73
2018-08-11T09:19:42.220Z,98127.84
2018-08-11T09:22:09.906Z,98120.32
2018-08-11T09:24:37.545Z,98119.98
2018-08-11T09:27:05.193Z,98119.29
2018-08-11T09:29:32.821Z,98113.98
2018-08-11T09:32:00.500Z,98112.28
2018-08-11T09:34:28.117Z,98108.63
2018-08-11T09:36:55.744Z,98104.80
2018-08-11T09:39:23.510Z,98107.80
2018-08-11T09:41:51.249Z,98113.33
2018-08-11T09:44:19.407Z,98109.34
2018-08-11T09:46:47.512Z,98114.33
2018-08-11T09:49:15.601Z,98116.05
2018-08-11T09:51:43.644Z,98117.56
2018-08-11T09:54:11.743Z,98116.70
2018-08-11T09:56:40.391Z,98123.36
2018-08-11T09:59:08.587Z,98117.30
2018-08-11T10:01:41.915Z,98119.91
2018-08-11T10:04:09.912Z,98115.75
2018-08-11T10:06:37.880Z,98113.53
2018-08-11T10:09:07.321Z,98114.23
2018-08-11T10:11:35.359Z,98112.71
2018-08-11T10:14:03.295Z,98111.26
2018-08-11T10:16:31.293Z,98107.69
2018-08-11T10:18:59.257Z,98101.14
2018-08-11T10:21:26.901Z,98103.55
2018-08-11T10:23:54.576Z,98107.29
2018-08-11T10:26:22.249Z,98101.00
2018-08-11T10:28:49.962Z,98099.88
2018-08-11T10:31:17.623Z,98105.66
2018-08-11T10:33:45.278Z,98098.90
2018-08-11T10:36:13.026Z,98094.19
2018-08-11T10:38:40.691Z,98096.56
2018-08-11T10:41:08.381Z,98097.59
2018-08-11T10:43:36.085Z,98096.14
2018-08-11T10:46:03.793Z,98099.64
2018-08-11T10:48:31.584Z,98100.89
2018-08-11T10:50:59.264Z,98097.39
2018-08-11T10:53:26.901Z,98093.58
2018-08-11T10:55:54.622Z,98092.12
2018-08-11T10:58:22.348Z,98090.12
2018-08-11T11:00:50.053Z,98090.34
2018-08-11T11:03:17.717Z,98081.34
2018-08-11T11:05:45.370Z,98080.80
2018-08-11T11:08:13.093Z,98084.05
2018-08-11T11:10:40.707Z,98069.97
2018-08-11T11:13:08.421Z,98074.95
2018-08-11T11:15:36.062Z,98060.29
2018-08-11T11:18:03.793Z,98073.16
2018-08-11T11:20:31.522Z,98062.34
2018-08-11T11:22:59.180Z,98069.33
2018-08-11T11:25:26.899Z,98072.50
2018-08-11T11:27:54.554Z,98066.77
2018-08-11T11:30:22.217Z,98067.46
2018-08-11T11:32:49.933Z,98038.94
2018-08-11T11:35:17.585Z,98065.77
2018-08-11T11:37:45.309Z,98066.58
2018-08-11T11:40:13.115Z,98061.39
2018-08-11T11:42:40.872Z,98062.96
2018-08-11T11:45:08.557Z,98057.80
2018-08-11T11:47:36.240Z,98048.77
2018-08-11T11:50:03.892Z,98057.91
2018-08-11T11:52:31.632Z,98062.22
2018-08-11T11:54:59.352Z,98057.03
2018-08-11T11:57:27.061Z,98063.25
2018-08-11T11:59:54.851Z,98053.77
2018-08-11T12:02:22.614Z,98048.36
2018-08-11T12:04:50.317Z,98046.67
2018-08-11T12:07:17.993Z,98060.98
2018-08-11T12:09:45.646Z,98059.30
2018-08-11T12:12:13.363Z,98059.30
2018-08-11T12:14:41.080Z,98060.91
2018-08-11T12:17:08.761Z,98048.72
2018-08-11T12:19:36.420Z,98049.16
2018-08-11T12:22:04.085Z,98047.48
2018-08-11T12:24:31.813Z,98040.96
2018-08-11T12:26:59.493Z,98035.47
2018-08-11T12:29:27.196Z,98030.27
2018-08-11T12:31:54.848Z,98034.00
2018-08-11T12:34:22.657Z,98025.55
2018-08-11T12:36:50.341Z,98021.38
2018-08-11T12:39:18.040Z,98018.66
2018-08-11T12:41:45.748Z,98021.04
2018-08-11T12:44:13.430Z,98019.94
2018-08-11T12:46:41.169Z,98019.02
2018-08-11T12:49:08.872Z,98019.83
2018-08-11T12:51:36.981Z,98007.30
2018-08-11T12:54:04.642Z,98015.31
2018-08-11T12:56:32.382Z,98001.22
2018-08-11T12:59:00.123Z,98013.30
2018-08-11T13:01:27.860Z,98003.05
2018-08-11T13:03:55.573Z,98009.70
2018-08-11T13:06:23.342Z,97990.28
2018-08-11T13:08:50.986Z,98003.48
2018-08-11T13:11:18.796Z,97993.67
2018-08-11T13:13:46.496Z,97994.69
2018-08-11T13:18:48.062Z,97981.95
2018-08-11T13:21:15.738Z,97986.23
2018-08-11T13:23:43.449Z,97983.52
2018-08-11T13:26:11.128Z,97989.41
2018-08-11T13:28:38.857Z,97983.99
2018-08-11T13:31:06.763Z,97981.28
2018-08-11T13:33:34.455Z,97981.17
2018-08-11T13:36:02.212Z,97977.91
2018-08-11T13:38:29.883Z,97980.28
2018-08-11T13:40:57.534Z,97970.22
2018-08-11T13:43:25.219Z,97948.20
2018-08-11T13:45:52.878Z,97965.27
2018-08-11T13:48:20.584Z,97961.66
2018-08-11T13:50:48.453Z,97961.08
2018-08-11T13:53:16.178Z,97958.63
2018-08-11T13:55:43.830Z,97959.17
2018-08-11T13:58:11.629Z,97954.22
2018-08-11T14:00:39.365Z,97945.77
2018-08-11T14:03:07.066Z,97949.83
2018-08-11T14:05:34.770Z,97953.22
2018-08-11T14:08:02.550Z,97944.50
2018-08-11T14:10:30.234Z,97942.81
2018-08-11T14:12:57.916Z,97941.45
2018-08-11T14:15:25.589Z,97942.39
2018-08-11T14:17:53.319Z,97936.97
2018-08-11T14:20:21.150Z,97924.77
2018-08-11T14:22:48.802Z,97929.61
2018-08-11T14:25:16.492Z,97927.15
2018-08-11T14:27:44.202Z,97943.06
2018-08-11T14:30:12.480Z,97942.14
2018-08-11T14:32:40.617Z,97930.29
2018-08-11T14:35:08.259Z,97932.78
2018-08-11T14:37:35.975Z,97929.52
2018-08-11T14:40:03.740Z,97931.64
2018-08-11T14:42:31.420Z,97928.05
2018-08-11T14:44:59.116Z,97918.00
2018-08-11T14:47:26.863Z,97919.58
2018-08-11T14:49:54.547Z,97917.08
2018-08-11T14:52:22.186Z,97920.01
2018-08-11T14:54:49.828Z,97920.59
2018-08-11T14:57:17.582Z,97922.72
2018-08-11T14:59:45.241Z,97920.81
2018-08-11T15:02:12.896Z,97911.33
2018-08-11T15:04:40.577Z,97910.31
2018-08-11T15:07:08.269Z,97918.44
2018-08-11T15:09:35.933Z,97916.87
2018-08-11T15:12:03.622Z,97914.38
2018-08-11T15:14:31.319Z,97910.77
2018-08-11T15:16:59.005Z,97907.26
2018-08-11T15:19:26.674Z,97904.55
2018-08-11T15:21:54.444Z,97902.05
2018-08-11T15:24:22.243Z,97902.86
2018-08-11T15:26:49.884Z,97903.91
2018-08-11T15:29:17.553Z,97907.14
2018-08-11T15:31:45.328Z,97901.19
2018-08-11T15:34:13.132Z,97903.91
2018-08-11T15:36:41.001Z,97900.85
2018-08-11T15:39:09.841Z,97903.91
2018-08-11T15:41:37.693Z,97900.64
2018-08-11T15:44:05.710Z,97901.41
2018-08-11T15:46:33.464Z,97899.28
2018-08-11T15:49:01.204Z,97904.12
2018-08-11T15:51:28.964Z,97900.05
2018-08-11T15:53:56.693Z,97900.85
2018-08-11T15:56:24.444Z,97904.36
2018-08-11T15:58:52.276Z,97899.96
2018-08-11T16:01:20.034Z,97895.09
2018-08-11T16:03:47.838Z,97892.94
2018-08-11T16:06:15.614Z,97893.95
2018-08-11T16:08:43.311Z,97889.89
2018-08-11T16:11:11.049Z,97889.34
2018-08-11T16:13:38.810Z,97888.53
2018-08-11T16:16:06.515Z,97896.66
2018-08-11T16:18:34.316Z,97895.31
2018-08-11T16:21:02.002Z,97900.17
2018-08-11T16:23:29.710Z,97896.11
2018-08-11T16:25:57.476Z,97896.91
2018-08-11T16:28:25.300Z,97900.17
2018-08-11T16:30:53.205Z,97851.28
2018-08-11T16:33:20.946Z,97894.20
2018-08-11T16:35:48.614Z,97893.41
2018-08-11T16:38:16.350Z,97890.69
2018-08-11T16:40:44.085Z,97887.98
2018-08-11T16:43:11.801Z,97886.07
2018-08-11T16:45:39.535Z,97886.62
2018-08-11T16:48:07.269Z,97884.13
2018-08-11T16:50:34.972Z,97879.63
2018-08-11T16:53:02.649Z,97887.42
2018-08-11T16:55:30.521Z,97882.34
2018-08-11T16:57:58.289Z,97886.41
2018-08-11T17:00:26.053Z,97885.83
2018-08-11T17:02:53.826Z,97880.98
2018-08-11T17:05:21.538Z,97879.97
2018-08-11T17:07:49.186Z,97879.39
2018-08-11T17:10:16.829Z,97882.90
2018-08-11T17:12:44.465Z,97880.19
2018-08-11T17:15:12.141Z,97876.68
2018-08-11T17:17:39.811Z,97875.33
2018-08-11T17:20:07.939Z,97881.33
2018-08-11T17:22:35.591Z,97877.02
2018-08-11T17:25:03.308Z,97877.82
2018-08-11T17:27:30.931Z,97876.47
2018-08-11T17:29:58.602Z,97875.66
2018-08-11T17:32:26.309Z,97877.02
2018-08-11T17:34:53.929Z,97867.84
2018-08-11T17:37:21.561Z,97873.27
2018-08-11T17:39:49.197Z,97875.45
2018-08-11T17:42:16.829Z,97879.27
2018-08-11T17:44:44.464Z,97874.61
2018-08-11T17:47:12.128Z,97880.96
2018-08-11T17:49:39.823Z,97875.55
2018-08-11T17:52:07.460Z,97882.53
2018-08-11T17:54:35.280Z,97876.66
2018-08-11T17:57:02.932Z,97875.30
2018-08-11T17:59:30.564Z,97879.36
2018-08-11T18:01:58.241Z,97881.86
2018-08-11T18:04:25.902Z,97882.07
2018-08-11T18:06:53.612Z,97879.73
2018-08-11T18:09:21.218Z,97885.15
2018-08-11T18:11:48.845Z,97887.06
2018-08-11T18:14:16.510Z,97887.06
2018-08-11T18:16:44.163Z,97892.48
2018-08-11T18:19:11.823Z,97890.32
2018-08-11T18:21:39.510Z,97891.46
2018-08-11T18:24:07.447Z,97885.24
2018-08-11T18:26:35.080Z,97892.81
2018-08-11T18:29:02.727Z,97892.60
2018-08-11T18:31:30.413Z,97895.31
2018-08-11T18:33:58.070Z,97897.22
2018-08-11T18:36:25.730Z,97899.38
2018-08-11T18:38:53.405Z,97896.42
2018-08-11T18:41:21.052Z,97897.56
2018-08-11T18:43:48.745Z,97896.20
2018-08-11T18:46:16.386Z,97895.98
2018-08-11T18:48:44.020Z,97903.31
2018-08-11T18:51:11.674Z,97910.09
2018-08-11T18:53:39.336Z,97905.22
2018-08-11T18:56:07.073Z,97911.78
2018-08-11T18:58:34.767Z,97911.56
2018-08-11T19:01:02.583Z,97916.18
2018-08-11T19:03:30.280Z,97915.38
2018-08-11T19:05:57.905Z,97919.45
2018-08-11T19:08:25.530Z,97914.61
2018-08-11T19:10:53.257Z,97915.97
2018-08-11T19:13:20.914Z,97920.58
2018-08-11T19:15:48.565Z,97930.06
2018-08-11T19:18:16.194Z,97925.78
2018-08-11T19:20:43.848Z,97924.98
2018-08-11T19:23:11.474Z,97931.97
2018-08-11T19:25:39.245Z,97929.60
2018-08-11T19:28:06.826Z,97932.89
2018-08-11T19:30:34.457Z,97936.96
2018-08-11T19:33:02.122Z,97939.42
2018-08-11T19:35:29.768Z,97928.92
2018-08-11T19:37:57.389Z,97932.22
2018-08-11T19:40:25.015Z,97930.06
2018-08-11T19:42:52.679Z,97931.41
2018-08-11T19:45:20.371Z,97932.77
2018-08-11T19:47:48.011Z,97932.55
2018-08-11T19:50:15.803Z,97928.48
2018-08-11T19:52:43.829Z,97933.44
2018-08-11T19:55:12.749Z,97941.02
2018-08-11T19:57:40.566Z,97935.02
2018-08-11T20:00:09.621Z,97935.59
2018-08-11T20:02:37.410Z,97938.05
2018-08-11T20:05:05.477Z,97943.48
2018-08-11T20:07:33.270Z,97941.10
2018-08-11T20:10:01.024Z,97940.55
2018-08-11T20:12:28.793Z,97940.33
2018-08-11T20:14:56.562Z,97943.04
2018-08-11T20:17:24.329Z,97905.53
2018-08-11T20:19:52.058Z,97947.66
2018-08-11T20:22:19.841Z,97948.20
2018-08-11T20:24:47.953Z,97953.63
2018-08-11T20:27:16.289Z,97947.99
2018-08-11T20:29:44.171Z,97948.80
2018-08-11T20:32:13.465Z,97947.77
2018-08-11T20:34:41.768Z,97945.63
2018-08-11T20:37:10.075Z,97952.61
2018-08-11T20:39:37.953Z,97946.97
2018-08-11T20:42:05.822Z,97953.74
2018-08-11T20:44:33.551Z,97950.81
2018-08-11T20:47:01.361Z,97948.88
2018-08-11T20:49:29.617Z,97951.37
2018-08-11T20:51:57.376Z,97954.30
2018-08-11T20:54:25.323Z,97950.57
2018-08-11T20:56:53.371Z,97954.63
2018-08-11T20:59:21.159Z,97955.77
2018-08-11T21:01:49.247Z,97954.20
2018-08-11T21:04:17.006Z,97955.55
2018-08-11T21:06:45.084Z,97960.97
2018-08-11T21:09:13.670Z,97957.45
2018-08-11T21:11:41.605Z,97962.11
2018-08-11T21:14:10.472Z,97959.39
2018-08-11T21:16:38.161Z,97959.95
2018-08-11T21:19:06.211Z,97959.73
2018-08-11T21:21:34.298Z,97958.59
2018-08-11T21:24:02.497Z,97963.80
2018-08-11T21:26:30.221Z,97968.19
2018-08-11T21:28:57.974Z,97968.97
2018-08-11T21:31:25.609Z,97964.68
2018-08-11T21:33:53.286Z,97969.88
2018-08-11T21:36:21.137Z,97969.88
2018-08-11T21:38:48.852Z,97967.94
2018-08-11T21:41:17.533Z,97965.23
2018-08-11T21:43:46.112Z,97964.22
2018-08-11T21:46:13.791Z,97965.02
2018-08-11T21:48:41.478Z,97963.45
2018-08-11T21:51:09.201Z,97966.16
2018-08-11T21:53:37.028Z,97968.06
2018-08-11T21:56:04.734Z,97966.48
2018-08-11T21:58:32.423Z,97964.88
2018-08-11T22:01:11.596Z,97963.78
2018-08-11T22:03:39.639Z,97963.53
2018-08-11T22:06:07.470Z,97962.76
2018-08-11T22:08:35.256Z,97960.60
2018-08-11T22:11:02.937Z,97957.67
2018-08-11T22:13:30.655Z,97961.73
2018-08-11T22:15:58.290Z,97964.45
2018-08-11T22:18:25.988Z,97961.16
2018-08-11T22:20:53.641Z,97960.13
2018-08-11T22:23:21.298Z,97958.01
2018-08-11T22:25:49.014Z,97962.08
2018-08-11T22:28:16.700Z,97957.55
2018-08-11T22:30:44.378Z,97962.62
2018-08-11T22:33:12.092Z,97959.70
2018-08-11T22:35:39.824Z,97960.80
2018-08-11T22:38:07.440Z,97949.97
2018-08-11T22:40:35.080Z,97952.68
2018-08-11T22:43:02.757Z,97939.14
2018-08-11T22:45:30.410Z,97940.05
2018-08-11T22:47:58.065Z,97940.27
2018-08-11T22:50:25.810Z,97939.47
2018-08-11T22:52:53.550Z,97942.18
2018-08-11T22:55:21.188Z,97941.16
2018-08-11T22:57:49.013Z,97938.45
2018-08-11T23:00:18.396Z,97943.31
2018-08-11T23:02:46.183Z,97940.39
2018-08-11T23:05:14.256Z,97937.10
2018-08-11T23:07:42.170Z,97940.14
2018-08-11T23:10:11.665Z,97937.44
2018-08-11T23:12:39.775Z,97930.45
2018-08-11T23:15:09.068Z,97931.00
2018-08-11T23:17:36.709Z,97928.08
2018-08-11T23:20:04.953Z,97927.52
2018-08-11T23:22:32.634Z,97924.02
2018-08-11T23:25:00.325Z,97927.52
2018-08-11T23:27:27.984Z,97925.92
2018-08-11T23:29:55.745Z,97930.56
2018-08-11T23:32:23.444Z,97927.86
2018-08-11T23:34:51.100Z,97927.05
2018-08-11T23:37:18.794Z,97922.99
2018-08-11T23:39:46.558Z,97921.64
2018-08-11T23:42:14.218Z,97921.42
2018-08-11T23:44:41.898Z,97920.06
2018-08-11T23:47:09.690Z,97922.77
2018-08-11T23:49:37.349Z,97919.27
2018-08-11T23:52:05.062Z,97912.50
2018-08-11T23:54:32.747Z,97914.98
2018-08-11T23:57:00.434Z,97908.77
2018-08-11T23:59:28.100Z,97913.38
